sensor_id;sensor_type;location;lat;lon;timestamp;P1;durP1;ratioP1;P2;durP2;ratioP2
59099;SDS011;44884;52.730;6.964;2022-11-15T00:02:13;10.55;;;9.20;;
59099;SDS011;44884;52.730;6.964;2022-11-15T00:04:39;8.25;;;7.25;;
59099;SDS011;44884;52.730;6.964;2022-11-15T00:07:05;9.85;;;8.32;;
59099;SDS011;44884;52.730;6.964;2022-11-15T00:09:31;11.15;;;8.45;;
59099;SDS011;44884;52.730;6.964;2022-11-15T00:11:57;9.30;;;8.02;;
59099;SDS011;44884;52.730;6.964;2022-11-15T00:14:23;9.57;;;7.80;;
59099;SDS011;44884;52.730;6.964;2022-11-15T00:16:49;9.65;;;8.35;;
59099;SDS011;44884;52.730;6.964;2022-11-15T00:19:15;10.45;;;8.20;;
59099;SDS011;44884;52.730;6.964;2022-11-15T00:21:41;12.48;;;8.93;;
59099;SDS011;44884;52.730;6.964;2022-11-15T00:24:07;11.05;;;8.27;;
59099;SDS011;44884;52.730;6.964;2022-11-15T00:26:33;8.77;;;7.50;;
59099;SDS011;44884;52.730;6.964;2022-11-15T00:28:59;8.93;;;7.75;;
59099;SDS011;44884;52.730;6.964;2022-11-15T00:31:25;10.48;;;8.30;;
59099;SDS011;44884;52.730;6.964;2022-11-15T00:33:51;9.95;;;8.32;;
59099;SDS011;44884;52.730;6.964;2022-11-15T00:36:17;12.02;;;8.48;;
59099;SDS011;44884;52.730;6.964;2022-11-15T00:38:43;8.98;;;7.93;;
59099;SDS011;44884;52.730;6.964;2022-11-15T00:41:09;9.68;;;7.57;;
59099;SDS011;44884;52.730;6.964;2022-11-15T00:43:35;9.02;;;8.07;;
59099;SDS011;44884;52.730;6.964;2022-11-15T00:46:01;10.40;;;8.57;;
59099;SDS011;44884;52.730;6.964;2022-11-15T00:48:28;9.65;;;8.13;;
59099;SDS011;44884;52.730;6.964;2022-11-15T00:50:54;11.10;;;7.22;;
59099;SDS011;44884;52.730;6.964;2022-11-15T00:53:20;8.68;;;7.43;;
59099;SDS011;44884;52.730;6.964;2022-11-15T00:55:46;9.95;;;7.32;;
59099;SDS011;44884;52.730;6.964;2022-11-15T00:58:12;8.60;;;7.68;;
59099;SDS011;44884;52.730;6.964;2022-11-15T01:00:38;9.15;;;7.75;;
59099;SDS011;44884;52.730;6.964;2022-11-15T01:03:04;9.10;;;7.38;;
59099;SDS011;44884;52.730;6.964;2022-11-15T01:05:30;9.00;;;7.90;;
59099;SDS011;44884;52.730;6.964;2022-11-15T01:07:56;8.32;;;7.05;;
59099;SDS011;44884;52.730;6.964;2022-11-15T01:10:23;9.45;;;8.02;;
59099;SDS011;44884;52.730;6.964;2022-11-15T01:12:50;8.70;;;7.50;;
59099;SDS011;44884;52.730;6.964;2022-11-15T01:15:17;11.23;;;8.70;;
59099;SDS011;44884;52.730;6.964;2022-11-15T01:17:43;10.45;;;8.27;;
59099;SDS011;44884;52.730;6.964;2022-11-15T01:20:09;7.55;;;6.80;;
59099;SDS011;44884;52.730;6.964;2022-11-15T01:22:35;10.27;;;7.80;;
59099;SDS011;44884;52.730;6.964;2022-11-15T01:25:01;9.80;;;8.13;;
59099;SDS011;44884;52.730;6.964;2022-11-15T01:27:27;9.88;;;7.30;;
59099;SDS011;44884;52.730;6.964;2022-11-15T01:29:53;8.65;;;7.75;;
59099;SDS011;44884;52.730;6.964;2022-11-15T01:32:19;11.27;;;8.45;;
59099;SDS011;44884;52.730;6.964;2022-11-15T01:34:45;9.05;;;7.72;;
59099;SDS011;44884;52.730;6.964;2022-11-15T01:37:11;9.77;;;7.88;;
59099;SDS011;44884;52.730;6.964;2022-11-15T01:39:37;9.80;;;8.07;;
59099;SDS011;44884;52.730;6.964;2022-11-15T01:42:03;9.13;;;7.05;;
59099;SDS011;44884;52.730;6.964;2022-11-15T01:47:08;10.38;;;7.97;;
59099;SDS011;44884;52.730;6.964;2022-11-15T01:49:37;9.25;;;7.57;;
59099;SDS011;44884;52.730;6.964;2022-11-15T01:52:05;10.52;;;8.15;;
59099;SDS011;44884;52.730;6.964;2022-11-15T01:54:33;9.55;;;7.32;;
59099;SDS011;44884;52.730;6.964;2022-11-15T01:56:59;8.52;;;7.00;;
59099;SDS011;44884;52.730;6.964;2022-11-15T01:59:27;9.40;;;7.40;;
59099;SDS011;44884;52.730;6.964;2022-11-15T02:01:53;8.20;;;7.20;;
59099;SDS011;44884;52.730;6.964;2022-11-15T02:04:24;10.35;;;8.05;;
59099;SDS011;44884;52.730;6.964;2022-11-15T02:06:50;8.75;;;6.88;;
59099;SDS011;44884;52.730;6.964;2022-11-15T02:09:16;9.07;;;7.40;;
59099;SDS011;44884;52.730;6.964;2022-11-15T02:11:42;9.23;;;7.13;;
59099;SDS011;44884;52.730;6.964;2022-11-15T02:14:09;8.38;;;7.43;;
59099;SDS011;44884;52.730;6.964;2022-11-15T02:22:00;9.00;;;7.53;;
59099;SDS011;44884;52.730;6.964;2022-11-15T02:24:46;8.32;;;7.05;;
59099;SDS011;44884;52.730;6.964;2022-11-15T02:27:20;11.57;;;8.80;;
59099;SDS011;44884;52.730;6.964;2022-11-15T02:30:23;8.63;;;7.57;;
59099;SDS011;44884;52.730;6.964;2022-11-15T02:32:48;10.23;;;8.15;;
59099;SDS011;44884;52.730;6.964;2022-11-15T02:37:58;9.25;;;7.28;;
59099;SDS011;44884;52.730;6.964;2022-11-15T02:40:27;11.18;;;7.82;;
59099;SDS011;44884;52.730;6.964;2022-11-15T02:42:55;11.02;;;7.75;;
59099;SDS011;44884;52.730;6.964;2022-11-15T02:45:44;10.13;;;7.88;;
59099;SDS011;44884;52.730;6.964;2022-11-15T02:48:11;8.25;;;6.80;;
59099;SDS011;44884;52.730;6.964;2022-11-15T02:50:37;8.38;;;7.20;;
59099;SDS011;44884;52.730;6.964;2022-11-15T02:53:04;8.88;;;7.47;;
59099;SDS011;44884;52.730;6.964;2022-11-15T02:55:31;8.05;;;6.85;;
59099;SDS011;44884;52.730;6.964;2022-11-15T03:00:38;9.45;;;7.03;;
59099;SDS011;44884;52.730;6.964;2022-11-15T03:11:03;10.93;;;8.52;;
59099;SDS011;44884;52.730;6.964;2022-11-15T03:13:38;12.60;;;7.65;;
59099;SDS011;44884;52.730;6.964;2022-11-15T03:16:09;10.23;;;7.53;;
59099;SDS011;44884;52.730;6.964;2022-11-15T03:18:37;9.40;;;7.00;;
59099;SDS011;44884;52.730;6.964;2022-11-15T03:21:05;7.47;;;6.68;;
59099;SDS011;44884;52.730;6.964;2022-11-15T03:23:32;10.07;;;7.85;;
59099;SDS011;44884;52.730;6.964;2022-11-15T03:25:59;10.10;;;8.05;;
59099;SDS011;44884;52.730;6.964;2022-11-15T03:28:36;9.52;;;7.60;;
59099;SDS011;44884;52.730;6.964;2022-11-15T03:31:03;12.98;;;8.43;;
59099;SDS011;44884;52.730;6.964;2022-11-15T03:33:50;8.75;;;7.32;;
59099;SDS011;44884;52.730;6.964;2022-11-15T03:36:18;9.68;;;7.50;;
59099;SDS011;44884;52.730;6.964;2022-11-15T03:38:45;11.98;;;8.00;;
59099;SDS011;44884;52.730;6.964;2022-11-15T03:41:14;9.77;;;8.45;;
59099;SDS011;44884;52.730;6.964;2022-11-15T03:43:53;11.40;;;8.48;;
59099;SDS011;44884;52.730;6.964;2022-11-15T03:46:22;9.07;;;7.70;;
59099;SDS011;44884;52.730;6.964;2022-11-15T03:48:51;9.35;;;8.00;;
59099;SDS011;44884;52.730;6.964;2022-11-15T03:51:17;10.60;;;8.35;;
59099;SDS011;44884;52.730;6.964;2022-11-15T03:53:43;9.05;;;7.05;;
59099;SDS011;44884;52.730;6.964;2022-11-15T03:56:09;12.27;;;8.77;;
59099;SDS011;44884;52.730;6.964;2022-11-15T03:58:35;11.35;;;8.55;;
59099;SDS011;44884;52.730;6.964;2022-11-15T04:01:01;9.38;;;8.35;;
59099;SDS011;44884;52.730;6.964;2022-11-15T04:03:28;11.05;;;8.45;;
59099;SDS011;44884;52.730;6.964;2022-11-15T04:05:54;8.25;;;6.97;;
59099;SDS011;44884;52.730;6.964;2022-11-15T04:08:20;8.45;;;7.60;;
59099;SDS011;44884;52.730;6.964;2022-11-15T04:10:48;8.98;;;7.22;;
59099;SDS011;44884;52.730;6.964;2022-11-15T04:13:14;11.57;;;8.43;;
59099;SDS011;44884;52.730;6.964;2022-11-15T04:15:40;10.60;;;7.93;;
59099;SDS011;44884;52.730;6.964;2022-11-15T04:18:06;9.32;;;7.88;;
59099;SDS011;44884;52.730;6.964;2022-11-15T04:20:32;8.60;;;7.10;;
59099;SDS011;44884;52.730;6.964;2022-11-15T04:23:18;10.93;;;7.72;;
59099;SDS011;44884;52.730;6.964;2022-11-15T04:26:03;10.45;;;7.78;;
59099;SDS011;44884;52.730;6.964;2022-11-15T04:28:30;11.65;;;9.02;;
59099;SDS011;44884;52.730;6.964;2022-11-15T04:30:56;11.77;;;8.52;;
59099;SDS011;44884;52.730;6.964;2022-11-15T04:33:22;9.27;;;7.45;;
59099;SDS011;44884;52.730;6.964;2022-11-15T04:35:48;9.68;;;7.30;;
59099;SDS011;44884;52.730;6.964;2022-11-15T04:38:34;12.20;;;8.48;;
59099;SDS011;44884;52.730;6.964;2022-11-15T04:41:00;9.10;;;6.90;;
59099;SDS011;44884;52.730;6.964;2022-11-15T04:43:26;9.07;;;7.63;;
59099;SDS011;44884;52.730;6.964;2022-11-15T04:45:52;12.13;;;8.25;;
59099;SDS011;44884;52.730;6.964;2022-11-15T04:48:18;8.00;;;6.90;;
59099;SDS011;44884;52.730;6.964;2022-11-15T04:50:44;12.63;;;9.02;;
59099;SDS011;44884;52.730;6.964;2022-11-15T04:53:10;10.80;;;8.93;;
59099;SDS011;44884;52.730;6.964;2022-11-15T04:55:36;10.43;;;7.32;;
59099;SDS011;44884;52.730;6.964;2022-11-15T04:58:02;8.75;;;7.72;;
59099;SDS011;44884;52.730;6.964;2022-11-15T05:00:28;9.65;;;7.78;;
59099;SDS011;44884;52.730;6.964;2022-11-15T05:02:55;9.90;;;8.35;;
59099;SDS011;44884;52.730;6.964;2022-11-15T05:05:40;9.02;;;7.05;;
59099;SDS011;44884;52.730;6.964;2022-11-15T05:08:06;10.70;;;7.97;;
59099;SDS011;44884;52.730;6.964;2022-11-15T05:10:32;7.95;;;6.95;;
59099;SDS011;44884;52.730;6.964;2022-11-15T05:12:58;8.18;;;7.35;;
59099;SDS011;44884;52.730;6.964;2022-11-15T05:15:24;7.93;;;7.00;;
59099;SDS011;44884;52.730;6.964;2022-11-15T05:17:50;9.05;;;7.43;;
59099;SDS011;44884;52.730;6.964;2022-11-15T05:20:16;7.57;;;6.82;;
59099;SDS011;44884;52.730;6.964;2022-11-15T05:22:42;8.52;;;7.03;;
59099;SDS011;44884;52.730;6.964;2022-11-15T05:25:08;10.77;;;7.88;;
59099;SDS011;44884;52.730;6.964;2022-11-15T05:27:34;11.15;;;5.95;;
59099;SDS011;44884;52.730;6.964;2022-11-15T05:30:00;8.88;;;7.38;;
59099;SDS011;44884;52.730;6.964;2022-11-15T05:32:27;11.82;;;6.88;;
59099;SDS011;44884;52.730;6.964;2022-11-15T05:34:54;10.82;;;8.13;;
59099;SDS011;44884;52.730;6.964;2022-11-15T05:37:20;9.30;;;7.75;;
59099;SDS011;44884;52.730;6.964;2022-11-15T05:39:46;12.40;;;7.35;;
59099;SDS011;44884;52.730;6.964;2022-11-15T05:42:13;9.52;;;7.53;;
59099;SDS011;44884;52.730;6.964;2022-11-15T05:44:40;11.13;;;7.78;;
59099;SDS011;44884;52.730;6.964;2022-11-15T05:47:08;10.98;;;7.85;;
59099;SDS011;44884;52.730;6.964;2022-11-15T05:49:35;10.13;;;8.35;;
59099;SDS011;44884;52.730;6.964;2022-11-15T05:52:02;10.35;;;7.88;;
59099;SDS011;44884;52.730;6.964;2022-11-15T05:54:29;12.73;;;9.30;;
59099;SDS011;44884;52.730;6.964;2022-11-15T05:56:57;14.52;;;9.63;;
59099;SDS011;44884;52.730;6.964;2022-11-15T05:59:24;12.82;;;9.15;;
59099;SDS011;44884;52.730;6.964;2022-11-15T06:01:51;15.65;;;11.80;;
59099;SDS011;44884;52.730;6.964;2022-11-15T06:04:17;13.88;;;10.20;;
59099;SDS011;44884;52.730;6.964;2022-11-15T06:06:43;16.50;;;11.60;;
59099;SDS011;44884;52.730;6.964;2022-11-15T06:09:09;17.65;;;11.65;;
59099;SDS011;44884;52.730;6.964;2022-11-15T06:11:35;19.00;;;11.95;;
59099;SDS011;44884;52.730;6.964;2022-11-15T06:14:01;14.90;;;11.18;;
59099;SDS011;44884;52.730;6.964;2022-11-15T06:16:27;16.90;;;12.05;;
59099;SDS011;44884;52.730;6.964;2022-11-15T06:18:53;15.02;;;10.57;;
59099;SDS011;44884;52.730;6.964;2022-11-15T06:21:19;16.50;;;11.55;;
59099;SDS011;44884;52.730;6.964;2022-11-15T06:23:45;16.98;;;11.98;;
59099;SDS011;44884;52.730;6.964;2022-11-15T06:26:11;15.50;;;11.30;;
59099;SDS011;44884;52.730;6.964;2022-11-15T06:28:37;19.75;;;11.88;;
59099;SDS011;44884;52.730;6.964;2022-11-15T06:31:07;19.63;;;12.75;;
59099;SDS011;44884;52.730;6.964;2022-11-15T06:33:33;17.75;;;12.52;;
59099;SDS011;44884;52.730;6.964;2022-11-15T06:36:00;15.18;;;11.77;;
59099;SDS011;44884;52.730;6.964;2022-11-15T06:38:26;17.95;;;10.77;;
59099;SDS011;44884;52.730;6.964;2022-11-15T06:40:52;17.23;;;11.10;;
59099;SDS011;44884;52.730;6.964;2022-11-15T06:43:18;18.27;;;11.70;;
59099;SDS011;44884;52.730;6.964;2022-11-15T06:45:44;18.42;;;10.98;;
59099;SDS011;44884;52.730;6.964;2022-11-15T06:48:10;16.67;;;11.15;;
59099;SDS011;44884;52.730;6.964;2022-11-15T06:50:36;16.30;;;11.73;;
59099;SDS011;44884;52.730;6.964;2022-11-15T06:53:05;16.42;;;11.50;;
59099;SDS011;44884;52.730;6.964;2022-11-15T06:55:31;17.50;;;11.50;;
59099;SDS011;44884;52.730;6.964;2022-11-15T06:57:57;16.35;;;11.02;;
59099;SDS011;44884;52.730;6.964;2022-11-15T07:00:23;15.95;;;10.85;;
59099;SDS011;44884;52.730;6.964;2022-11-15T07:02:49;15.98;;;11.43;;
59099;SDS011;44884;52.730;6.964;2022-11-15T07:05:15;20.23;;;10.90;;
59099;SDS011;44884;52.730;6.964;2022-11-15T07:07:41;14.45;;;10.38;;
59099;SDS011;44884;52.730;6.964;2022-11-15T07:10:07;14.77;;;10.35;;
59099;SDS011;44884;52.730;6.964;2022-11-15T07:12:33;13.32;;;9.52;;
59099;SDS011;44884;52.730;6.964;2022-11-15T07:14:59;14.82;;;11.02;;
59099;SDS011;44884;52.730;6.964;2022-11-15T07:17:25;13.50;;;9.70;;
59099;SDS011;44884;52.730;6.964;2022-11-15T07:19:51;14.63;;;10.25;;
59099;SDS011;44884;52.730;6.964;2022-11-15T07:22:17;12.27;;;9.35;;
59099;SDS011;44884;52.730;6.964;2022-11-15T07:24:43;12.57;;;10.57;;
59099;SDS011;44884;52.730;6.964;2022-11-15T07:27:09;17.13;;;10.50;;
59099;SDS011;44884;52.730;6.964;2022-11-15T07:29:35;17.30;;;10.35;;
59099;SDS011;44884;52.730;6.964;2022-11-15T07:32:01;13.23;;;9.07;;
59099;SDS011;44884;52.730;6.964;2022-11-15T07:34:27;15.15;;;10.38;;
59099;SDS011;44884;52.730;6.964;2022-11-15T07:36:53;14.30;;;9.88;;
59099;SDS011;44884;52.730;6.964;2022-11-15T07:39:19;16.10;;;10.77;;
59099;SDS011;44884;52.730;6.964;2022-11-15T07:41:45;15.10;;;9.95;;
59099;SDS011;44884;52.730;6.964;2022-11-15T07:44:13;12.90;;;10.32;;
59099;SDS011;44884;52.730;6.964;2022-11-15T07:46:39;13.05;;;9.40;;
59099;SDS011;44884;52.730;6.964;2022-11-15T07:49:05;13.02;;;9.35;;
59099;SDS011;44884;52.730;6.964;2022-11-15T07:51:31;11.93;;;9.35;;
59099;SDS011;44884;52.730;6.964;2022-11-15T07:53:57;12.93;;;9.98;;
59099;SDS011;44884;52.730;6.964;2022-11-15T07:56:23;13.25;;;9.75;;
59099;SDS011;44884;52.730;6.964;2022-11-15T07:58:49;13.27;;;9.52;;
59099;SDS011;44884;52.730;6.964;2022-11-15T08:01:15;12.52;;;9.40;;
59099;SDS011;44884;52.730;6.964;2022-11-15T08:03:41;12.68;;;9.73;;
59099;SDS011;44884;52.730;6.964;2022-11-15T08:06:07;16.52;;;10.40;;
59099;SDS011;44884;52.730;6.964;2022-11-15T08:08:33;12.95;;;9.65;;
59099;SDS011;44884;52.730;6.964;2022-11-15T08:10:59;14.20;;;9.55;;
59099;SDS011;44884;52.730;6.964;2022-11-15T08:13:25;10.35;;;8.88;;
59099;SDS011;44884;52.730;6.964;2022-11-15T08:15:51;12.45;;;9.50;;
59099;SDS011;44884;52.730;6.964;2022-11-15T08:18:17;13.68;;;9.55;;
59099;SDS011;44884;52.730;6.964;2022-11-15T08:20:43;11.68;;;9.45;;
59099;SDS011;44884;52.730;6.964;2022-11-15T08:23:10;12.20;;;9.15;;
59099;SDS011;44884;52.730;6.964;2022-11-15T08:25:38;10.32;;;8.43;;
59099;SDS011;44884;52.730;6.964;2022-11-15T08:28:05;11.80;;;8.52;;
59099;SDS011;44884;52.730;6.964;2022-11-15T08:30:34;12.88;;;9.00;;
59099;SDS011;44884;52.730;6.964;2022-11-15T08:33:01;9.07;;;7.78;;
59099;SDS011;44884;52.730;6.964;2022-11-15T08:35:27;13.25;;;9.45;;
59099;SDS011;44884;52.730;6.964;2022-11-15T08:37:53;12.80;;;9.45;;
59099;SDS011;44884;52.730;6.964;2022-11-15T08:40:20;13.27;;;9.15;;
59099;SDS011;44884;52.730;6.964;2022-11-15T08:42:46;11.90;;;8.20;;
59099;SDS011;44884;52.730;6.964;2022-11-15T08:45:12;11.93;;;8.00;;
59099;SDS011;44884;52.730;6.964;2022-11-15T08:47:38;12.52;;;9.27;;
59099;SDS011;44884;52.730;6.964;2022-11-15T08:50:05;10.73;;;9.05;;
59099;SDS011;44884;52.730;6.964;2022-11-15T08:52:31;10.85;;;7.90;;
59099;SDS011;44884;52.730;6.964;2022-11-15T08:54:57;12.95;;;8.75;;
59099;SDS011;44884;52.730;6.964;2022-11-15T08:57:23;9.07;;;7.20;;
59099;SDS011;44884;52.730;6.964;2022-11-15T08:59:49;12.30;;;8.82;;
59099;SDS011;44884;52.730;6.964;2022-11-15T09:02:15;14.73;;;8.88;;
59099;SDS011;44884;52.730;6.964;2022-11-15T09:04:42;13.70;;;8.75;;
59099;SDS011;44884;52.730;6.964;2022-11-15T09:07:11;11.38;;;8.32;;
59099;SDS011;44884;52.730;6.964;2022-11-15T09:09:37;11.38;;;8.07;;
59099;SDS011;44884;52.730;6.964;2022-11-15T09:12:04;10.52;;;8.55;;
59099;SDS011;44884;52.730;6.964;2022-11-15T09:14:30;10.40;;;7.90;;
59099;SDS011;44884;52.730;6.964;2022-11-15T09:16:56;10.25;;;7.90;;
59099;SDS011;44884;52.730;6.964;2022-11-15T09:19:23;10.27;;;7.78;;
59099;SDS011;44884;52.730;6.964;2022-11-15T09:21:49;10.80;;;8.02;;
59099;SDS011;44884;52.730;6.964;2022-11-15T09:24:15;13.23;;;8.65;;
59099;SDS011;44884;52.730;6.964;2022-11-15T09:26:42;11.70;;;8.68;;
59099;SDS011;44884;52.730;6.964;2022-11-15T09:29:08;11.85;;;8.10;;
59099;SDS011;44884;52.730;6.964;2022-11-15T09:31:34;12.77;;;8.63;;
59099;SDS011;44884;52.730;6.964;2022-11-15T09:34:00;8.98;;;7.55;;
59099;SDS011;44884;52.730;6.964;2022-11-15T09:36:26;11.02;;;7.63;;
59099;SDS011;44884;52.730;6.964;2022-11-15T09:38:52;11.95;;;8.27;;
59099;SDS011;44884;52.730;6.964;2022-11-15T09:46:36;10.57;;;8.10;;
59099;SDS011;44884;52.730;6.964;2022-11-15T09:49:03;10.18;;;7.57;;
59099;SDS011;44884;52.730;6.964;2022-11-15T09:51:36;13.45;;;9.32;;
59099;SDS011;44884;52.730;6.964;2022-11-15T09:56:40;9.07;;;7.38;;
59099;SDS011;44884;52.730;6.964;2022-11-15T09:59:22;12.50;;;8.95;;
59099;SDS011;44884;52.730;6.964;2022-11-15T10:01:56;8.68;;;7.32;;
59099;SDS011;44884;52.730;6.964;2022-11-15T10:04:25;12.48;;;7.88;;
59099;SDS011;44884;52.730;6.964;2022-11-15T10:06:54;11.05;;;8.43;;
59099;SDS011;44884;52.730;6.964;2022-11-15T10:09:26;9.30;;;7.47;;
59099;SDS011;44884;52.730;6.964;2022-11-15T10:11:54;9.73;;;7.80;;
59099;SDS011;44884;52.730;6.964;2022-11-15T10:14:21;11.05;;;8.63;;
59099;SDS011;44884;52.730;6.964;2022-11-15T10:19:38;11.85;;;8.98;;
59099;SDS011;44884;52.730;6.964;2022-11-15T10:22:17;10.10;;;7.95;;
59099;SDS011;44884;52.730;6.964;2022-11-15T10:24:44;11.70;;;8.35;;
59099;SDS011;44884;52.730;6.964;2022-11-15T10:27:18;11.93;;;7.97;;
59099;SDS011;44884;52.730;6.964;2022-11-15T10:29:45;9.88;;;7.75;;
59099;SDS011;44884;52.730;6.964;2022-11-15T10:32:12;12.07;;;7.07;;
59099;SDS011;44884;52.730;6.964;2022-11-15T10:34:38;10.23;;;8.10;;
59099;SDS011;44884;52.730;6.964;2022-11-15T10:37:04;13.75;;;8.35;;
59099;SDS011;44884;52.730;6.964;2022-11-15T10:39:30;10.75;;;7.60;;
59099;SDS011;44884;52.730;6.964;2022-11-15T10:41:58;14.82;;;10.55;;
59099;SDS011;44884;52.730;6.964;2022-11-15T10:44:44;16.55;;;9.23;;
59099;SDS011;44884;52.730;6.964;2022-11-15T10:47:43;13.10;;;8.98;;
59099;SDS011;44884;52.730;6.964;2022-11-15T10:50:04;11.45;;;8.60;;
59099;SDS011;44884;52.730;6.964;2022-11-15T10:52:31;13.35;;;9.38;;
59099;SDS011;44884;52.730;6.964;2022-11-15T10:57:37;14.15;;;9.35;;
59099;SDS011;44884;52.730;6.964;2022-11-15T11:00:06;14.57;;;9.13;;
59099;SDS011;44884;52.730;6.964;2022-11-15T11:02:34;11.20;;;7.95;;
59099;SDS011;44884;52.730;6.964;2022-11-15T11:05:00;12.27;;;8.63;;
59099;SDS011;44884;52.730;6.964;2022-11-15T11:07:31;10.88;;;7.93;;
59099;SDS011;44884;52.730;6.964;2022-11-15T11:12:42;10.60;;;8.80;;
59099;SDS011;44884;52.730;6.964;2022-11-15T11:15:11;14.27;;;8.88;;
59099;SDS011;44884;52.730;6.964;2022-11-15T11:25:35;13.77;;;9.35;;
59099;SDS011;44884;52.730;6.964;2022-11-15T11:28:05;16.63;;;8.10;;
59099;SDS011;44884;52.730;6.964;2022-11-15T11:33:21;12.55;;;7.60;;
59099;SDS011;44884;52.730;6.964;2022-11-15T11:41:04;9.52;;;7.25;;
59099;SDS011;44884;52.730;6.964;2022-11-15T11:48:47;11.32;;;7.93;;
59099;SDS011;44884;52.730;6.964;2022-11-15T11:51:28;8.75;;;6.53;;
59099;SDS011;44884;52.730;6.964;2022-11-15T11:53:57;10.82;;;7.50;;
59099;SDS011;44884;52.730;6.964;2022-11-15T11:56:28;9.75;;;7.10;;
59099;SDS011;44884;52.730;6.964;2022-11-15T11:58:56;13.13;;;7.00;;
59099;SDS011;44884;52.730;6.964;2022-11-15T12:01:30;11.52;;;7.20;;
59099;SDS011;44884;52.730;6.964;2022-11-15T12:04:05;11.48;;;6.32;;
59099;SDS011;44884;52.730;6.964;2022-11-15T12:06:40;7.70;;;6.88;;
59099;SDS011;44884;52.730;6.964;2022-11-15T12:09:12;10.73;;;7.18;;
59099;SDS011;44884;52.730;6.964;2022-11-15T12:14:36;11.30;;;7.85;;
59099;SDS011;44884;52.730;6.964;2022-11-15T12:17:04;10.73;;;7.05;;
59099;SDS011;44884;52.730;6.964;2022-11-15T12:19:30;9.48;;;5.93;;
59099;SDS011;44884;52.730;6.964;2022-11-15T12:21:59;16.38;;;7.18;;
59099;SDS011;44884;52.730;6.964;2022-11-15T12:24:33;8.88;;;6.00;;
59099;SDS011;44884;52.730;6.964;2022-11-15T12:29:39;7.88;;;6.22;;
59099;SDS011;44884;52.730;6.964;2022-11-15T12:32:17;8.52;;;6.07;;
59099;SDS011;44884;52.730;6.964;2022-11-15T12:34:45;7.60;;;5.93;;
59099;SDS011;44884;52.730;6.964;2022-11-15T12:40:04;9.88;;;6.05;;
59099;SDS011;44884;52.730;6.964;2022-11-15T12:44:57;10.07;;;6.28;;
59099;SDS011;44884;52.730;6.964;2022-11-15T12:47:25;10.68;;;6.03;;
59099;SDS011;44884;52.730;6.964;2022-11-15T12:49:51;9.05;;;6.05;;
59099;SDS011;44884;52.730;6.964;2022-11-15T12:52:17;12.23;;;6.55;;
59099;SDS011;44884;52.730;6.964;2022-11-15T12:54:54;9.45;;;6.18;;
59099;SDS011;44884;52.730;6.964;2022-11-15T13:02:45;10.02;;;5.60;;
59099;SDS011;44884;52.730;6.964;2022-11-15T13:22:41;8.30;;;6.13;;
59099;SDS011;44884;52.730;6.964;2022-11-15T13:28:01;8.15;;;5.25;;
59099;SDS011;44884;52.730;6.964;2022-11-15T13:30:29;6.30;;;4.50;;
59099;SDS011;44884;52.730;6.964;2022-11-15T13:32:55;10.10;;;6.07;;
59099;SDS011;44884;52.730;6.964;2022-11-15T13:35:25;10.93;;;5.82;;
59099;SDS011;44884;52.730;6.964;2022-11-15T13:37:52;8.57;;;5.30;;
59099;SDS011;44884;52.730;6.964;2022-11-15T13:40:20;8.50;;;5.55;;
59099;SDS011;44884;52.730;6.964;2022-11-15T13:42:46;7.38;;;5.32;;
59099;SDS011;44884;52.730;6.964;2022-11-15T13:45:13;8.43;;;6.30;;
59099;SDS011;44884;52.730;6.964;2022-11-15T13:47:40;9.52;;;5.57;;
59099;SDS011;44884;52.730;6.964;2022-11-15T13:50:10;7.32;;;5.30;;
59099;SDS011;44884;52.730;6.964;2022-11-15T13:52:36;7.18;;;4.90;;
59099;SDS011;44884;52.730;6.964;2022-11-15T13:55:11;6.90;;;4.15;;
59099;SDS011;44884;52.730;6.964;2022-11-15T13:57:42;7.55;;;4.82;;
59099;SDS011;44884;52.730;6.964;2022-11-15T14:02:54;12.02;;;5.38;;
59099;SDS011;44884;52.730;6.964;2022-11-15T14:05:21;7.03;;;4.63;;
59099;SDS011;44884;52.730;6.964;2022-11-15T14:07:54;8.95;;;4.70;;
59099;SDS011;44884;52.730;6.964;2022-11-15T14:10:42;5.50;;;4.55;;
59099;SDS011;44884;52.730;6.964;2022-11-15T14:13:11;7.80;;;4.85;;
59099;SDS011;44884;52.730;6.964;2022-11-15T14:15:51;7.00;;;5.25;;
59099;SDS011;44884;52.730;6.964;2022-11-15T14:21:05;8.52;;;5.63;;
59099;SDS011;44884;52.730;6.964;2022-11-15T14:23:31;10.07;;;5.18;;
59099;SDS011;44884;52.730;6.964;2022-11-15T14:25:58;5.45;;;4.47;;
59099;SDS011;44884;52.730;6.964;2022-11-15T14:30:51;9.25;;;4.05;;
59099;SDS011;44884;52.730;6.964;2022-11-15T14:33:22;4.40;;;3.97;;
59099;SDS011;44884;52.730;6.964;2022-11-15T14:35:48;5.20;;;4.05;;
59099;SDS011;44884;52.730;6.964;2022-11-15T14:38:14;5.97;;;4.93;;
59099;SDS011;44884;52.730;6.964;2022-11-15T14:40:41;4.75;;;4.05;;
59099;SDS011;44884;52.730;6.964;2022-11-15T14:43:11;5.47;;;3.83;;
59099;SDS011;44884;52.730;6.964;2022-11-15T14:45:37;7.00;;;4.38;;
59099;SDS011;44884;52.730;6.964;2022-11-15T14:48:04;5.03;;;4.53;;
59099;SDS011;44884;52.730;6.964;2022-11-15T14:50:30;5.03;;;4.30;;
59099;SDS011;44884;52.730;6.964;2022-11-15T14:52:57;5.38;;;4.20;;
59099;SDS011;44884;52.730;6.964;2022-11-15T14:55:24;4.43;;;4.00;;
59099;SDS011;44884;52.730;6.964;2022-11-15T14:57:51;4.75;;;4.22;;
59099;SDS011;44884;52.730;6.964;2022-11-15T15:00:17;6.13;;;3.88;;
59099;SDS011;44884;52.730;6.964;2022-11-15T15:02:44;7.85;;;5.10;;
59099;SDS011;44884;52.730;6.964;2022-11-15T15:05:15;4.60;;;4.20;;
59099;SDS011;44884;52.730;6.964;2022-11-15T15:07:41;6.00;;;4.40;;
59099;SDS011;44884;52.730;6.964;2022-11-15T15:10:08;4.72;;;3.75;;
59099;SDS011;44884;52.730;6.964;2022-11-15T15:12:34;5.05;;;3.97;;
59099;SDS011;44884;52.730;6.964;2022-11-15T15:15:00;6.28;;;4.05;;
59099;SDS011;44884;52.730;6.964;2022-11-15T15:17:26;5.05;;;3.95;;
59099;SDS011;44884;52.730;6.964;2022-11-15T15:19:52;3.88;;;3.58;;
59099;SDS011;44884;52.730;6.964;2022-11-15T15:22:18;4.10;;;3.70;;
59099;SDS011;44884;52.730;6.964;2022-11-15T15:24:47;4.03;;;3.63;;
59099;SDS011;44884;52.730;6.964;2022-11-15T15:27:13;6.57;;;4.13;;
59099;SDS011;44884;52.730;6.964;2022-11-15T15:29:40;6.90;;;4.30;;
59099;SDS011;44884;52.730;6.964;2022-11-15T15:32:06;4.20;;;3.80;;
59099;SDS011;44884;52.730;6.964;2022-11-15T15:34:32;4.22;;;3.60;;
59099;SDS011;44884;52.730;6.964;2022-11-15T15:39:33;4.63;;;3.42;;
59099;SDS011;44884;52.730;6.964;2022-11-15T15:41:59;5.22;;;3.75;;
59099;SDS011;44884;52.730;6.964;2022-11-15T15:44:25;5.05;;;4.55;;
59099;SDS011;44884;52.730;6.964;2022-11-15T15:46:51;5.22;;;3.95;;
59099;SDS011;44884;52.730;6.964;2022-11-15T15:49:17;3.42;;;3.15;;
59099;SDS011;44884;52.730;6.964;2022-11-15T15:51:43;3.58;;;3.28;;
59099;SDS011;44884;52.730;6.964;2022-11-15T15:54:09;4.68;;;3.70;;
59099;SDS011;44884;52.730;6.964;2022-11-15T15:56:35;3.55;;;3.25;;
59099;SDS011;44884;52.730;6.964;2022-11-15T15:59:01;5.28;;;4.00;;
59099;SDS011;44884;52.730;6.964;2022-11-15T16:01:28;4.30;;;3.25;;
59099;SDS011;44884;52.730;6.964;2022-11-15T16:03:53;6.70;;;3.22;;
59099;SDS011;44884;52.730;6.964;2022-11-15T16:06:53;5.05;;;3.35;;
59099;SDS011;44884;52.730;6.964;2022-11-15T16:09:13;5.05;;;4.22;;
59099;SDS011;44884;52.730;6.964;2022-11-15T16:11:40;4.40;;;3.28;;
59099;SDS011;44884;52.730;6.964;2022-11-15T16:14:06;3.45;;;3.15;;
59099;SDS011;44884;52.730;6.964;2022-11-15T16:16:32;4.28;;;3.30;;
59099;SDS011;44884;52.730;6.964;2022-11-15T16:18:59;4.18;;;3.25;;
59099;SDS011;44884;52.730;6.964;2022-11-15T16:21:26;3.63;;;3.30;;
59099;SDS011;44884;52.730;6.964;2022-11-15T16:23:52;3.88;;;3.35;;
59099;SDS011;44884;52.730;6.964;2022-11-15T16:26:21;3.00;;;2.80;;
59099;SDS011;44884;52.730;6.964;2022-11-15T16:28:49;3.95;;;3.42;;